createdAt,value
2022-10-05T00:09:58.308Z,5.63
2022-10-05T00:20:00.363Z,5.43
2022-10-05T00:30:12.497Z,5.47
2022-10-05T00:40:48.793Z,5.63
2022-10-05T00:51:28.493Z,5.43
2022-10-05T01:01:36.052Z,6.33
2022-10-05T01:12:04.352Z,5.80
2022-10-05T01:22:41.689Z,6.47
2022-10-05T01:32:56.052Z,6.77
2022-10-05T01:43:09.417Z,7.23
2022-10-05T01:53:37.576Z,7.07
2022-10-05T02:03:53.467Z,6.33
2022-10-05T02:14:02.946Z,6.37
2022-10-05T02:24:14.384Z,7.07
2022-10-05T02:34:32.236Z,6.13
2022-10-05T02:45:10.724Z,5.87
2022-10-05T02:55:27.168Z,6.50
2022-10-05T03:05:37.862Z,7.07
2022-10-05T03:16:17.674Z,7.37
2022-10-05T03:26:29.651Z,7.60
2022-10-05T03:36:49.783Z,6.43
2022-10-05T03:47:16.797Z,6.30
2022-10-05T03:57:24.977Z,6.33
2022-10-05T04:07:43.921Z,6.17
2022-10-05T04:17:49.542Z,6.23
2022-10-05T04:28:16.009Z,7.20
2022-10-05T04:38:47.120Z,6.33
2022-10-05T04:48:55.695Z,5.97
2022-10-05T04:59:17.168Z,5.47
2022-10-05T05:10:19.917Z,6.70
2022-10-05T05:20:35.887Z,5.80
2022-10-05T05:30:49.311Z,6.60
2022-10-05T05:40:58.107Z,6.67
2022-10-05T05:51:17.166Z,9.73
2022-10-05T06:01:44.291Z,6.10
2022-10-05T06:12:04.853Z,6.20
2022-10-05T06:22:12.986Z,7.27
2022-10-05T06:32:29.395Z,6.07
2022-10-05T06:42:51.647Z,6.30
2022-10-05T06:53:57.185Z,6.20
2022-10-05T07:04:40.972Z,6.37
2022-10-05T07:15:39.994Z,6.87
2022-10-05T07:26:10.070Z,5.90
2022-10-05T07:36:54.384Z,6.27
2022-10-05T07:47:06.948Z,5.40
2022-10-05T07:57:51.010Z,5.78
2022-10-05T08:08:07.153Z,5.30
2022-10-05T08:18:17.013Z,4.57
2022-10-05T08:28:25.594Z,4.90
2022-10-05T08:38:38.350Z,4.22
2022-10-05T08:49:02.035Z,3.88
2022-10-05T08:59:41.759Z,5.00
2022-10-05T09:10:07.589Z,4.13
2022-10-05T09:21:05.056Z,4.22
2022-10-05T09:31:24.782Z,4.13
2022-10-05T09:41:43.161Z,3.83
2022-10-05T09:52:04.610Z,3.42
2022-10-05T10:02:20.619Z,3.30
2022-10-05T10:12:48.090Z,3.63
2022-10-05T10:23:20.728Z,3.13
2022-10-05T10:34:30.537Z,3.40
2022-10-05T10:44:47.332Z,3.17
2022-10-05T10:55:15.544Z,3.15
2022-10-05T11:05:46.404Z,3.30
2022-10-05T11:16:10.955Z,3.20
2022-10-05T11:26:35.278Z,3.58
2022-10-05T11:37:02.648Z,2.88
2022-10-05T11:47:20.126Z,2.60
2022-10-05T11:57:38.098Z,3.50
2022-10-05T12:08:14.219Z,3.00
2022-10-05T12:18:31.252Z,2.65
2022-10-05T12:28:39.671Z,3.63
2022-10-05T12:38:54.234Z,3.83
2022-10-05T12:49:33.758Z,3.33
2022-10-05T12:59:45.589Z,3.88
2022-10-05T13:10:02.975Z,3.85
2022-10-05T13:20:21.506Z,4.22
2022-10-05T13:30:23.831Z,3.70
2022-10-05T13:40:33.161Z,4.13
2022-10-05T13:51:02.509Z,4.05
2022-10-05T14:01:22.834Z,4.30
2022-10-05T14:11:32.076Z,5.25
2022-10-05T14:22:12.919Z,4.00
2022-10-05T14:32:19.751Z,4.40
2022-10-05T14:42:27.346Z,4.18
2022-10-05T14:52:32.826Z,3.75
2022-10-05T15:02:54.559Z,4.05
2022-10-05T15:13:19.211Z,3.88
2022-10-05T15:23:47.505Z,3.50
2022-10-05T15:34:02.378Z,4.35
2022-10-05T15:44:26.731Z,4.32
2022-10-05T15:54:56.403Z,4.50
2022-10-05T16:05:04.492Z,4.55
2022-10-05T16:15:18.406Z,4.88
2022-10-05T16:25:47.460Z,4.50
2022-10-05T16:36:22.741Z,4.10
2022-10-05T16:46:40.294Z,5.20
2022-10-05T16:56:51.397Z,8.15
2022-10-05T17:07:09.102Z,5.38
2022-10-05T17:17:37.630Z,5.40
2022-10-05T17:27:56.009Z,5.15
2022-10-05T17:38:16.908Z,5.10
2022-10-05T17:48:40.070Z,4.53
2022-10-05T17:58:45.162Z,5.22
2022-10-05T18:08:47.546Z,4.80
2022-10-05T18:18:58.896Z,5.03
2022-10-05T18:29:41.588Z,4.55
2022-10-05T18:39:57.269Z,4.68
2022-10-05T18:50:12.006Z,4.72
2022-10-05T19:00:22.370Z,5.18
2022-10-05T19:10:25.584Z,5.50
2022-10-05T19:20:42.478Z,4.63
2022-10-05T19:31:09.790Z,4.55
2022-10-05T19:41:27.463Z,4.68
2022-10-05T19:51:37.326Z,7.68
2022-10-05T20:01:40.876Z,5.00
2022-10-05T20:11:55.588Z,5.30
2022-10-05T20:22:23.844Z,5.18
2022-10-05T20:32:30.728Z,5.15
2022-10-05T20:42:40.464Z,5.25
2022-10-05T20:52:47.765Z,5.05
2022-10-05T21:02:52.305Z,4.85
2022-10-05T21:12:55.179Z,5.80
2022-10-05T21:22:57.545Z,5.07
2022-10-05T21:33:04.820Z,5.40
2022-10-05T21:43:07.599Z,5.38
2022-10-05T21:53:13.575Z,5.18
2022-10-05T22:03:17.941Z,5.70
2022-10-05T22:13:19.941Z,5.65
2022-10-05T22:23:23.371Z,4.97
2022-10-05T22:33:25.730Z,5.38
2022-10-05T22:43:29.479Z,5.22
2022-10-05T22:53:32.857Z,5.25
2022-10-05T23:03:42.486Z,4.97
2022-10-05T23:13:46.853Z,5.30
2022-10-05T23:23:58.235Z,5.40
2022-10-05T23:34:00.595Z,4.82
2022-10-05T23:44:03.033Z,5.97
2022-10-05T23:54:10.475Z,4.60
